createdAt,value
2023-03-23T00:01:20.679Z,11.96
2023-03-23T00:03:47.191Z,11.95
2023-03-23T00:06:18.192Z,11.96
2023-03-23T00:08:47.751Z,12.07
2023-03-23T00:11:25.230Z,12.11
2023-03-23T00:13:54.813Z,12.19
2023-03-23T00:16:21.391Z,12.19
2023-03-23T00:18:48.115Z,12.16
2023-03-23T00:21:14.778Z,12.15
2023-03-23T00:23:41.229Z,12.23
2023-03-23T00:26:07.710Z,12.33
2023-03-23T00:28:34.422Z,12.27
2023-03-23T00:31:00.828Z,12.38
2023-03-23T00:33:27.580Z,12.43
2023-03-23T00:35:54.582Z,12.49
2023-03-23T00:38:21.461Z,12.51
2023-03-23T00:40:48.397Z,12.52
2023-03-23T00:43:14.870Z,12.48
2023-03-23T00:45:41.484Z,12.51
2023-03-23T00:48:08.089Z,12.54
2023-03-23T00:50:39.060Z,12.55
2023-03-23T00:53:05.720Z,12.52
2023-03-23T00:55:32.240Z,12.50
2023-03-23T00:57:58.825Z,12.56
2023-03-23T01:00:25.260Z,12.59
2023-03-23T01:02:52.635Z,12.56
2023-03-23T01:05:19.090Z,12.58
2023-03-23T01:07:45.537Z,12.59
2023-03-23T01:10:13.722Z,12.56
2023-03-23T01:12:40.202Z,12.55
2023-03-23T01:15:07.204Z,12.60
2023-03-23T01:17:33.645Z,12.64
2023-03-23T01:20:00.063Z,12.53
2023-03-23T01:22:26.736Z,12.58
2023-03-23T01:24:53.145Z,12.56
2023-03-23T01:27:19.605Z,12.61
2023-03-23T01:29:46.028Z,12.57
2023-03-23T01:32:12.428Z,12.61
2023-03-23T01:34:38.848Z,12.62
2023-03-23T01:37:09.327Z,12.62
2023-03-23T01:39:35.748Z,12.63
2023-03-23T01:42:02.187Z,12.65
2023-03-23T01:44:28.995Z,12.67
2023-03-23T01:46:56.032Z,12.71
2023-03-23T01:49:22.516Z,12.68
2023-03-23T01:51:48.939Z,12.72
2023-03-23T01:54:15.373Z,12.69
2023-03-23T01:56:42.329Z,12.69
2023-03-23T01:59:08.818Z,12.71
2023-03-23T02:01:37.843Z,12.67
2023-03-23T02:04:04.293Z,12.69
2023-03-23T02:06:30.998Z,12.74
2023-03-23T02:08:57.408Z,12.77
2023-03-23T02:11:36.862Z,12.81
2023-03-23T02:14:03.980Z,12.78
2023-03-23T02:16:30.576Z,12.70
2023-03-23T02:18:57.273Z,12.71
2023-03-23T02:21:23.815Z,12.72
2023-03-23T02:23:51.449Z,12.72
2023-03-23T02:26:17.888Z,12.77
2023-03-23T02:28:44.388Z,12.75
2023-03-23T02:31:12.439Z,12.76
2023-03-23T02:33:38.877Z,12.71
2023-03-23T02:36:05.297Z,12.70
2023-03-23T02:38:32.130Z,12.61
2023-03-23T02:40:58.595Z,12.64
2023-03-23T02:43:25.009Z,12.61
2023-03-23T02:46:01.730Z,12.59
2023-03-23T02:48:28.136Z,12.64
2023-03-23T02:50:54.567Z,12.59
2023-03-23T02:53:21.385Z,12.60
2023-03-23T02:55:47.861Z,12.57
2023-03-23T02:58:14.331Z,12.53
2023-03-23T03:00:40.857Z,12.52
2023-03-23T03:03:07.744Z,12.50
2023-03-23T03:05:34.638Z,12.50
2023-03-23T03:08:01.052Z,12.45
2023-03-23T03:10:27.856Z,12.44
2023-03-23T03:12:54.422Z,12.44
2023-03-23T03:15:20.901Z,12.47
2023-03-23T03:17:47.490Z,12.45
2023-03-23T03:20:15.218Z,12.48
2023-03-23T03:22:45.124Z,12.46
2023-03-23T03:25:18.097Z,12.45
2023-03-23T03:27:45.350Z,12.45
2023-03-23T03:30:13.180Z,12.51
2023-03-23T03:32:40.177Z,12.50
2023-03-23T03:35:07.005Z,12.51
2023-03-23T03:37:33.595Z,12.51
2023-03-23T03:40:00.575Z,12.52
2023-03-23T03:42:27.282Z,12.54
2023-03-23T03:44:53.794Z,12.56
2023-03-23T03:47:20.238Z,12.51
2023-03-23T03:49:46.816Z,12.59
2023-03-23T03:52:13.434Z,12.55
2023-03-23T03:54:41.693Z,12.62
2023-03-23T03:57:09.276Z,12.54
2023-03-23T03:59:35.716Z,12.59
2023-03-23T04:02:02.438Z,12.64
2023-03-23T04:04:29.713Z,12.64
2023-03-23T04:06:56.115Z,12.71
2023-03-23T04:09:22.890Z,12.64
2023-03-23T04:11:49.675Z,12.68
2023-03-23T04:14:16.797Z,12.65
2023-03-23T04:16:54.348Z,12.66
2023-03-23T04:19:21.051Z,12.65
2023-03-23T04:21:50.168Z,12.67
2023-03-23T04:24:23.337Z,12.61
2023-03-23T04:27:02.983Z,12.62
2023-03-23T04:29:29.389Z,12.65
2023-03-23T04:31:57.368Z,12.67
2023-03-23T04:34:24.434Z,12.71
2023-03-23T04:36:56.046Z,12.75
2023-03-23T04:39:25.305Z,12.71
2023-03-23T04:41:52.725Z,12.66
2023-03-23T04:44:22.513Z,12.72
2023-03-23T04:46:50.782Z,12.77
2023-03-23T04:49:22.040Z,12.73
2023-03-23T04:51:48.634Z,12.72
2023-03-23T04:54:15.594Z,12.72
2023-03-23T04:56:42.477Z,12.74
2023-03-23T04:59:08.900Z,12.74
2023-03-23T05:01:38.196Z,12.70
2023-03-23T05:04:07.013Z,12.68
2023-03-23T05:06:33.514Z,12.72
2023-03-23T05:08:59.977Z,12.77
2023-03-23T05:11:26.593Z,12.67
2023-03-23T05:13:53.029Z,12.65
2023-03-23T05:16:19.598Z,12.66
2023-03-23T05:18:47.589Z,12.73
2023-03-23T05:21:15.389Z,12.75
2023-03-23T05:23:42.121Z,12.75
2023-03-23T05:26:08.620Z,12.75
2023-03-23T05:28:35.086Z,12.78
2023-03-23T05:31:01.501Z,12.84
2023-03-23T05:33:27.934Z,12.81
2023-03-23T05:35:54.382Z,12.82
2023-03-23T05:38:20.853Z,12.83
2023-03-23T05:40:47.326Z,12.90
2023-03-23T05:43:13.745Z,12.89
2023-03-23T05:45:40.714Z,12.96
2023-03-23T05:48:07.330Z,12.99
2023-03-23T05:50:34.270Z,13.05
2023-03-23T05:53:00.723Z,13.00
2023-03-23T05:55:27.162Z,13.08
2023-03-23T05:57:53.593Z,13.12
2023-03-23T06:00:24.582Z,13.13
2023-03-23T06:02:52.094Z,13.08
2023-03-23T06:05:18.815Z,13.03
2023-03-23T06:07:45.382Z,13.05
2023-03-23T06:10:12.139Z,13.01
2023-03-23T06:12:38.587Z,13.08
2023-03-23T06:15:05.297Z,12.97
2023-03-23T06:17:31.802Z,12.95
2023-03-23T06:19:58.937Z,13.06
2023-03-23T06:22:26.168Z,13.17
2023-03-23T06:24:52.638Z,13.25
2023-03-23T06:27:19.102Z,13.38
2023-03-23T06:29:45.530Z,13.43
2023-03-23T06:32:11.968Z,13.48
2023-03-23T06:34:38.783Z,13.56
2023-03-23T06:37:06.607Z,13.72
2023-03-23T06:39:33.147Z,13.77
2023-03-23T06:42:01.021Z,13.90
2023-03-23T06:44:27.480Z,13.84
2023-03-23T06:46:53.885Z,14.02
2023-03-23T06:49:21.136Z,14.17
2023-03-23T06:51:47.614Z,14.24
2023-03-23T06:54:14.047Z,14.39
2023-03-23T06:56:40.896Z,14.39
2023-03-23T06:59:08.414Z,14.53
2023-03-23T07:01:34.886Z,14.55
2023-03-23T07:04:01.486Z,14.57
2023-03-23T07:06:28.481Z,14.75
2023-03-23T07:08:54.911Z,14.95
2023-03-23T07:11:21.350Z,15.09
2023-03-23T07:13:47.951Z,15.05
2023-03-23T07:16:14.368Z,15.35
2023-03-23T07:18:40.970Z,15.47
2023-03-23T07:21:07.701Z,15.61
2023-03-23T07:23:34.180Z,15.73
2023-03-23T07:26:00.668Z,15.73
2023-03-23T07:28:27.556Z,15.76
2023-03-23T07:30:53.994Z,15.77
2023-03-23T07:33:20.538Z,15.74
2023-03-23T07:35:47.005Z,15.87
2023-03-23T07:38:13.486Z,15.78
2023-03-23T07:40:40.131Z,15.76
2023-03-23T07:43:06.953Z,15.74
2023-03-23T07:45:33.407Z,15.73
2023-03-23T07:48:00.781Z,15.73
2023-03-23T07:50:27.449Z,15.73
2023-03-23T07:52:53.868Z,15.71
2023-03-23T07:55:20.305Z,15.75
2023-03-23T07:57:46.732Z,15.85
2023-03-23T08:00:20.251Z,15.89
2023-03-23T08:02:46.996Z,16.08
2023-03-23T08:05:14.585Z,16.07
2023-03-23T08:07:41.546Z,15.87
2023-03-23T08:10:11.261Z,15.88
2023-03-23T08:12:37.914Z,15.87
2023-03-23T08:15:04.517Z,15.94
2023-03-23T08:17:30.952Z,15.98
2023-03-23T08:19:57.362Z,16.02
2023-03-23T08:22:23.802Z,15.90
2023-03-23T08:24:50.323Z,15.92
2023-03-23T08:27:16.744Z,15.84
2023-03-23T08:29:43.170Z,15.83
2023-03-23T08:32:09.593Z,15.73
2023-03-23T08:34:36.033Z,15.73
2023-03-23T08:37:02.892Z,15.71
2023-03-23T08:39:31.280Z,15.60
2023-03-23T08:41:57.746Z,15.69
2023-03-23T08:44:24.704Z,15.67
2023-03-23T08:46:55.782Z,15.75
2023-03-23T08:49:22.829Z,15.68
2023-03-23T08:51:49.741Z,15.61
2023-03-23T08:54:16.172Z,15.61
2023-03-23T08:56:43.335Z,15.64
2023-03-23T08:59:10.328Z,15.58
2023-03-23T09:01:37.134Z,15.55
2023-03-23T09:04:03.540Z,15.53
2023-03-23T09:06:30.001Z,15.55
2023-03-23T09:08:57.002Z,15.48
2023-03-23T09:11:23.448Z,15.48
2023-03-23T09:13:49.937Z,15.57
2023-03-23T09:16:16.341Z,15.65
2023-03-23T09:18:42.774Z,15.59
2023-03-23T09:21:19.076Z,15.77
2023-03-23T09:23:46.695Z,15.68
2023-03-23T09:26:13.126Z,15.68
2023-03-23T09:28:39.780Z,15.74
2023-03-23T09:31:06.190Z,15.53
2023-03-23T09:33:36.028Z,15.41
2023-03-23T09:36:15.307Z,15.43
2023-03-23T09:38:42.684Z,15.45
2023-03-23T09:41:09.120Z,15.38
2023-03-23T09:43:35.571Z,15.44
2023-03-23T09:46:02.113Z,15.30
2023-03-23T09:48:28.876Z,15.26
2023-03-23T09:50:55.635Z,15.16
2023-03-23T09:53:22.088Z,15.24
2023-03-23T09:55:50.056Z,15.15
2023-03-23T09:58:17.571Z,15.03
2023-03-23T10:00:44.066Z,14.95
2023-03-23T10:03:10.680Z,14.99
2023-03-23T10:05:37.180Z,15.28
2023-03-23T10:08:03.620Z,15.20
2023-03-23T10:10:30.024Z,15.52
2023-03-23T10:12:59.521Z,15.35
2023-03-23T10:15:25.957Z,15.58
2023-03-23T10:17:52.751Z,15.48
2023-03-23T10:20:20.384Z,15.61
2023-03-23T10:22:46.794Z,15.62
2023-03-23T10:25:14.037Z,15.50
2023-03-23T10:27:40.475Z,15.88
2023-03-23T10:30:06.913Z,15.84
2023-03-23T10:32:33.332Z,16.09
2023-03-23T10:34:59.739Z,16.06
2023-03-23T10:37:26.183Z,16.16
2023-03-23T10:39:52.935Z,16.02
2023-03-23T10:42:19.366Z,16.14
2023-03-23T10:44:46.858Z,16.42
2023-03-23T10:47:14.493Z,16.57
2023-03-23T10:49:41.202Z,16.57
2023-03-23T10:52:07.645Z,16.51
2023-03-23T10:54:34.709Z,16.39
2023-03-23T10:57:03.448Z,16.41
2023-03-23T10:59:30.466Z,16.41
2023-03-23T11:01:57.210Z,16.63
2023-03-23T11:04:24.236Z,16.69
2023-03-23T11:06:50.845Z,16.34
2023-03-23T11:09:18.688Z,16.38
2023-03-23T11:11:45.136Z,16.38
2023-03-23T11:14:11.688Z,16.41
2023-03-23T11:16:38.443Z,16.18
2023-03-23T11:19:04.848Z,16.30
2023-03-23T11:21:31.277Z,16.32
2023-03-23T11:24:09.359Z,16.17
2023-03-23T11:26:36.544Z,16.24
2023-03-23T11:29:02.971Z,16.25
2023-03-23T11:31:29.395Z,16.34
2023-03-23T11:34:05.861Z,16.30
2023-03-23T11:36:32.820Z,16.07
2023-03-23T11:38:59.911Z,15.84
2023-03-23T11:41:26.938Z,15.80
2023-03-23T11:43:53.387Z,15.80
2023-03-23T11:46:19.805Z,15.83
2023-03-23T11:48:46.871Z,15.75
2023-03-23T11:51:13.368Z,15.77
2023-03-23T11:53:40.128Z,15.81
2023-03-23T11:56:06.572Z,15.82
2023-03-23T11:58:34.174Z,15.72
2023-03-23T12:01:00.602Z,15.46
2023-03-23T12:03:27.923Z,15.52
2023-03-23T12:05:54.420Z,15.25
2023-03-23T12:13:21.060Z,15.37
2023-03-23T12:15:47.688Z,15.38
2023-03-23T12:18:14.378Z,15.59
2023-03-23T12:20:42.916Z,15.65
2023-03-23T12:23:09.770Z,15.59
2023-03-23T12:25:36.286Z,15.80
2023-03-23T12:28:02.781Z,15.83
2023-03-23T12:30:29.250Z,15.99
2023-03-23T12:32:56.020Z,15.72
2023-03-23T12:35:24.270Z,15.77
2023-03-23T12:37:51.131Z,16.04
2023-03-23T12:40:18.658Z,15.78
2023-03-23T12:42:45.728Z,15.66
2023-03-23T12:45:13.496Z,15.84
2023-03-23T12:47:39.950Z,16.01
2023-03-23T12:50:06.409Z,15.94
2023-03-23T12:52:33.116Z,15.87
2023-03-23T12:54:59.548Z,16.03
2023-03-23T12:57:28.533Z,16.00
2023-03-23T12:59:54.991Z,15.90
2023-03-23T13:02:21.508Z,15.99
2023-03-23T13:04:49.647Z,15.73
2023-03-23T13:07:17.270Z,15.88
2023-03-23T13:09:43.861Z,16.19
2023-03-23T13:12:10.441Z,16.05
2023-03-23T13:14:37.069Z,16.06
2023-03-23T13:17:04.072Z,16.30
2023-03-23T13:19:30.603Z,16.35
2023-03-23T13:21:57.780Z,16.20
2023-03-23T13:24:24.212Z,16.18
2023-03-23T13:26:50.654Z,16.07
2023-03-23T13:29:19.469Z,16.30
2023-03-23T13:31:45.872Z,16.30
2023-03-23T13:34:13.694Z,16.24
2023-03-23T13:36:40.259Z,16.35
2023-03-23T13:39:08.852Z,16.17
2023-03-23T13:41:35.735Z,16.20
2023-03-23T13:44:02.281Z,16.12
2023-03-23T13:46:29.031Z,16.38
2023-03-23T13:48:55.840Z,16.49
2023-03-23T13:51:24.644Z,16.74
2023-03-23T13:53:52.782Z,16.71
2023-03-23T13:56:20.876Z,16.84
2023-03-23T13:58:48.705Z,16.75
2023-03-23T14:01:17.487Z,16.64
2023-03-23T14:03:44.837Z,16.75
2023-03-23T14:06:11.381Z,17.00
2023-03-23T14:08:37.820Z,17.03
2023-03-23T14:11:04.799Z,17.66
2023-03-23T14:13:31.809Z,17.79
2023-03-23T14:15:58.310Z,17.60
2023-03-23T14:18:24.742Z,17.56
2023-03-23T14:20:51.449Z,17.42
2023-03-23T14:23:18.884Z,17.37
2023-03-23T14:25:46.702Z,17.80
2023-03-23T14:28:13.539Z,17.74
2023-03-23T14:30:39.949Z,17.67
2023-03-23T14:33:06.782Z,17.38
2023-03-23T14:35:33.257Z,17.34
2023-03-23T14:37:59.681Z,17.40
2023-03-23T14:40:26.320Z,17.26
2023-03-23T14:42:55.477Z,17.38
2023-03-23T14:45:21.998Z,17.00
2023-03-23T14:47:48.480Z,16.79
2023-03-23T14:50:16.621Z,16.68
2023-03-23T14:52:43.147Z,16.77
2023-03-23T14:55:09.570Z,16.57
2023-03-23T14:57:36.176Z,16.56
2023-03-23T15:00:02.789Z,16.56
2023-03-23T15:02:29.439Z,16.54
2023-03-23T15:04:56.080Z,16.58
2023-03-23T15:07:22.525Z,16.55
2023-03-23T15:09:48.940Z,16.42
2023-03-23T15:12:15.364Z,16.40
2023-03-23T15:14:41.773Z,16.57
2023-03-23T15:17:08.279Z,16.51
2023-03-23T15:19:34.792Z,16.57
2023-03-23T15:22:01.744Z,16.54
2023-03-23T15:24:28.227Z,16.46
2023-03-23T15:26:54.708Z,16.37
2023-03-23T15:29:26.585Z,16.37
2023-03-23T15:31:53.284Z,16.22
2023-03-23T15:34:19.740Z,16.26
2023-03-23T15:36:46.329Z,16.28
2023-03-23T15:39:12.795Z,16.20
2023-03-23T15:41:39.212Z,16.19
2023-03-23T15:44:05.768Z,16.20
2023-03-23T15:46:32.221Z,16.20
2023-03-23T15:48:58.646Z,16.11
2023-03-23T15:51:25.125Z,16.12
2023-03-23T15:53:51.541Z,16.22
2023-03-23T15:56:18.191Z,16.16
2023-03-23T15:58:45.333Z,16.17
2023-03-23T16:01:11.867Z,16.17
2023-03-23T16:03:38.457Z,16.10
2023-03-23T16:06:04.899Z,16.07
2023-03-23T16:08:31.352Z,16.11
2023-03-23T16:10:57.904Z,16.00
2023-03-23T16:13:24.488Z,15.96
2023-03-23T16:15:51.810Z,15.98
2023-03-23T16:18:18.264Z,15.94
2023-03-23T16:20:44.712Z,15.95
2023-03-23T16:23:11.163Z,16.03
2023-03-23T16:25:39.044Z,15.93
2023-03-23T16:28:05.495Z,15.96
2023-03-23T16:30:31.935Z,15.93
2023-03-23T16:32:58.438Z,15.96
2023-03-23T16:35:24.997Z,15.99
2023-03-23T16:37:51.716Z,15.86
2023-03-23T16:40:35.052Z,15.84
2023-03-23T16:43:01.516Z,15.93
2023-03-23T16:45:35.081Z,15.91
2023-03-23T16:48:01.874Z,15.96
2023-03-23T16:50:28.340Z,15.83
2023-03-23T16:52:54.802Z,15.88
2023-03-23T16:55:21.836Z,15.85
2023-03-23T16:57:48.290Z,15.89
2023-03-23T17:00:15.649Z,15.86
2023-03-23T17:02:42.209Z,16.04
2023-03-23T17:05:09.137Z,15.87
2023-03-23T17:07:35.567Z,15.87
2023-03-23T17:10:02.064Z,15.53
2023-03-23T17:12:32.184Z,15.39
2023-03-23T17:14:58.668Z,15.55
2023-03-23T17:17:25.189Z,15.24
2023-03-23T17:19:51.968Z,15.65
2023-03-23T17:22:18.457Z,15.71
2023-03-23T17:24:46.041Z,15.47
2023-03-23T17:27:12.742Z,15.51
2023-03-23T17:29:39.179Z,15.59
2023-03-23T17:32:05.842Z,15.49
2023-03-23T17:34:32.311Z,15.17
2023-03-23T17:36:58.819Z,15.33
2023-03-23T17:39:25.688Z,15.05
2023-03-23T17:41:52.147Z,15.27
2023-03-23T17:44:18.761Z,15.26
2023-03-23T17:46:45.182Z,15.40
2023-03-23T17:49:11.621Z,15.11
2023-03-23T17:51:38.069Z,15.16
2023-03-23T17:54:04.487Z,15.06
2023-03-23T17:56:31.012Z,14.64
2023-03-23T17:58:57.516Z,15.06
2023-03-23T18:01:23.987Z,15.03
2023-03-23T18:03:50.446Z,14.94
2023-03-23T18:06:16.902Z,15.02
2023-03-23T18:08:43.474Z,14.90
2023-03-23T18:11:09.937Z,14.91
2023-03-23T18:13:36.605Z,14.89
2023-03-23T18:16:04.017Z,14.39
2023-03-23T18:18:30.734Z,14.45
2023-03-23T18:20:57.143Z,14.51
2023-03-23T18:23:23.574Z,14.18
2023-03-23T18:25:49.980Z,14.31
2023-03-23T18:28:17.467Z,14.25
2023-03-23T18:30:49.277Z,14.00
2023-03-23T18:33:16.213Z,14.25
2023-03-23T18:35:43.538Z,14.27
2023-03-23T18:38:10.308Z,14.32
2023-03-23T18:40:36.727Z,14.02
2023-03-23T18:43:03.356Z,13.94
2023-03-23T18:45:33.853Z,13.92
2023-03-23T18:48:00.406Z,13.94
2023-03-23T18:50:27.031Z,14.06
2023-03-23T18:52:53.462Z,14.07
2023-03-23T18:55:20.978Z,13.88
2023-03-23T18:57:49.661Z,13.86
2023-03-23T19:00:16.075Z,13.81
2023-03-23T19:02:42.548Z,13.73
2023-03-23T19:05:09.274Z,13.62
2023-03-23T19:07:35.799Z,13.33
2023-03-23T19:10:02.247Z,13.41
2023-03-23T19:12:28.661Z,13.41
2023-03-23T19:14:55.117Z,13.37
2023-03-23T19:17:21.553Z,13.38
2023-03-23T19:19:48.849Z,13.32
2023-03-23T19:22:15.364Z,13.44
2023-03-23T19:24:41.789Z,13.57
2023-03-23T19:27:08.626Z,13.41
2023-03-23T19:29:36.026Z,13.23
2023-03-23T19:32:03.088Z,13.27
2023-03-23T19:34:30.832Z,13.29
2023-03-23T19:37:05.338Z,12.99
2023-03-23T19:39:34.286Z,13.05
2023-03-23T19:42:01.117Z,13.18
2023-03-23T19:44:28.883Z,13.18
2023-03-23T19:46:56.290Z,13.18
2023-03-23T19:49:22.879Z,13.14
2023-03-23T19:51:49.362Z,12.94
2023-03-23T19:54:15.804Z,12.83
2023-03-23T19:56:43.517Z,12.82
2023-03-23T19:59:10.740Z,12.72
2023-03-23T20:01:37.425Z,12.59
2023-03-23T20:04:05.561Z,12.43
2023-03-23T20:06:33.118Z,12.22
2023-03-23T20:09:00.613Z,12.28
2023-03-23T20:11:27.732Z,12.41
2023-03-23T20:13:55.173Z,12.47
2023-03-23T20:16:21.984Z,12.61
2023-03-23T20:18:50.002Z,12.56
2023-03-23T20:21:20.279Z,12.50
2023-03-23T20:23:46.892Z,12.59
2023-03-23T20:26:13.345Z,12.62
2023-03-23T20:28:40.692Z,12.58
2023-03-23T20:31:19.955Z,12.55
2023-03-23T20:34:00.553Z,12.60
2023-03-23T20:36:29.986Z,12.60
2023-03-23T20:38:57.627Z,12.62
2023-03-23T20:41:24.510Z,12.61
2023-03-23T20:43:51.092Z,12.61
2023-03-23T20:46:21.115Z,12.65
2023-03-23T20:48:49.593Z,12.67
2023-03-23T20:51:16.027Z,12.62
2023-03-23T20:53:42.567Z,12.72
2023-03-23T20:56:09.097Z,12.76
2023-03-23T20:58:35.524Z,12.83
2023-03-23T21:01:03.136Z,12.83
2023-03-23T21:03:29.663Z,12.85
2023-03-23T21:05:56.748Z,12.87
2023-03-23T21:08:23.199Z,12.71
2023-03-23T21:10:49.758Z,12.58
2023-03-23T21:13:16.177Z,12.59
2023-03-23T21:15:42.758Z,12.78
2023-03-23T21:18:09.496Z,12.82
2023-03-23T21:20:36.127Z,12.91
2023-03-23T21:23:02.577Z,13.00
2023-03-23T21:25:34.171Z,13.04
2023-03-23T21:28:01.745Z,12.97
2023-03-23T21:30:28.178Z,13.02
2023-03-23T21:32:54.658Z,13.05
2023-03-23T21:35:21.413Z,13.06
2023-03-23T21:37:48.852Z,13.01
2023-03-23T21:40:16.948Z,12.82
2023-03-23T21:42:43.430Z,12.68
2023-03-23T21:45:10.191Z,12.78
2023-03-23T21:47:36.661Z,12.95
2023-03-23T21:50:04.503Z,12.99
2023-03-23T21:52:31.296Z,13.06
2023-03-23T21:54:59.613Z,13.17
2023-03-23T21:57:26.857Z,13.16
2023-03-23T21:59:53.298Z,13.19
2023-03-23T22:02:19.740Z,13.24
2023-03-23T22:04:46.142Z,13.25
2023-03-23T22:07:12.909Z,13.27
2023-03-23T22:09:41.132Z,13.33
2023-03-23T22:12:07.610Z,13.29
2023-03-23T22:14:34.061Z,13.31
2023-03-23T22:17:00.851Z,13.32
2023-03-23T22:19:27.283Z,13.07
2023-03-23T22:21:53.698Z,13.22
2023-03-23T22:24:20.185Z,13.26
2023-03-23T22:26:46.654Z,13.24
2023-03-23T22:29:13.108Z,13.31
2023-03-23T22:31:40.031Z,13.21
2023-03-23T22:34:06.494Z,13.23
2023-03-23T22:36:33.468Z,13.18
2023-03-23T22:38:59.924Z,13.20
2023-03-23T22:41:26.406Z,13.21
2023-03-23T22:43:52.822Z,13.20
2023-03-23T22:46:19.240Z,13.22
2023-03-23T22:48:45.645Z,13.28
2023-03-23T22:51:12.132Z,13.23
2023-03-23T22:53:38.621Z,13.12
2023-03-23T22:56:05.116Z,13.17
2023-03-23T22:58:31.592Z,13.16
2023-03-23T23:00:58.104Z,13.17
2023-03-23T23:03:24.567Z,13.17
2023-03-23T23:05:50.974Z,13.19
2023-03-23T23:08:18.212Z,13.20
2023-03-23T23:10:44.909Z,13.23
2023-03-23T23:13:11.444Z,13.24
2023-03-23T23:15:38.036Z,13.26
2023-03-23T23:18:05.094Z,13.25
2023-03-23T23:20:31.955Z,13.22
2023-03-23T23:22:58.398Z,13.05
2023-03-23T23:25:24.837Z,13.07
2023-03-23T23:27:51.465Z,13.00
2023-03-23T23:30:17.931Z,12.96
2023-03-23T23:32:44.805Z,12.94
2023-03-23T23:35:11.262Z,12.94
2023-03-23T23:37:38.036Z,12.91
2023-03-23T23:40:07.859Z,12.90
2023-03-23T23:42:34.280Z,12.92
2023-03-23T23:45:00.862Z,12.94
2023-03-23T23:47:27.368Z,13.04
2023-03-23T23:49:53.863Z,13.03
2023-03-23T23:52:20.295Z,13.01
2023-03-23T23:54:48.381Z,12.99
2023-03-23T23:57:15.005Z,12.92
2023-03-23T23:59:41.492Z,12.97
